CYKF

Waterloo Airport

Kitchener, Ontario, Canada
METAR CYKF 201502Z AUTO 21010G16KT 5SM -RA BR OVC006 11/11 A3000 RMK SLP166
Observed Flight Rules
Feb-20 @ 15:02 UTC (5 hours ago) Instrument Flight Rules
Wind Visibility Clouds Conditions
210° at 10 knots
 Gusting to 16 knots
5 miles
  • Overcast at 600' AGL
  • Light Rain
  • Mist
Temperatures Readings
Current 11°C / 52°F
Dewpoint 11°C / 52°F
Humidity 100%
Altimeter 30" Hg
Pressure 1016.6 hPa
Elevation 317
METAR CYKF 201502Z AUTO 21010G16KT 5SM -RA BR OVC006 11/11 A3000 RMK SLP166
Observed Flight Rules
Feb-20 @ 15:02 UTC
(5 hours ago)
IFR
Wind Visibility
210° at 10 knots
 Gusting to 16 knots
5 miles
Clouds
  • Overcast at 600' AGL
Conditions
  • Light Rain
  • Mist
Temperature Dewpoint
11°C / 52°F 11°C / 52°F
Humidity Altimeter Pressure
100% 30" Hg 1016.6 hPa